Time;durP1;ratioP1;P1;durP2;ratioP2;P2;SDS_P1;SDS_P2;PMS_P1;PMS_P2;Temp;Humidity;BMP_temperature;BMP_pressure;BME280_temperature;BME280_humidity;BME280_pressure;Samples;Min_cycle;Max_cycle;Signal;HPM_P1;HPM_P2
2023/04/25 00:01:37;;;;;;;5.85;4.47;;;;;;;;;;5021210;28;20042;-69
2023/04/25 00:04:03;;;;;;;5.30;4.80;;;;;;;;;;5027339;28;20464;-68
2023/04/25 00:06:29;;;;;;;6.28;4.43;;;;;;;;;;5026808;28;20048;-68
2023/04/25 00:08:56;;;;;;;6.10;4.60;;;;;;;;;;5018309;28;20057;-69
2023/04/25 00:11:22;;;;;;;5.53;4.97;;;;;;;;;;5024309;28;20121;-68
2023/04/25 00:13:49;;;;;;;5.50;4.88;;;;;;;;;;5024429;28;20049;-68
2023/04/25 00:16:15;;;;;;;5.50;4.30;;;;;;;;;;5026962;28;20033;-68
2023/04/25 00:18:41;;;;;;;6.63;4.57;;;;;;;;;;5014779;28;20040;-68
2023/04/25 00:21:07;;;;;;;5.25;4.63;;;;;;;;;;5020486;28;20042;-68
2023/04/25 00:23:35;;;;;;;5.65;4.90;;;;;;;;;;5022474;28;20406;-68
2023/04/25 00:26:01;;;;;;;7.35;4.60;;;;;;;;;;5025136;28;20040;-68
2023/04/25 00:28:26;;;;;;;5.22;4.47;;;;;;;;;;5018220;28;20033;-68
2023/04/25 00:30:52;;;;;;;8.15;4.95;;;;;;;;;;5023251;28;20268;-68
2023/04/25 00:33:17;;;;;;;7.30;4.75;;;;;;;;;;4996358;28;20037;-68
2023/04/25 00:35:43;;;;;;;5.65;4.60;;;;;;;;;;4997368;28;20052;-68
2023/04/25 00:38:08;;;;;;;5.35;4.80;;;;;;;;;;5011069;28;20032;-69
2023/04/25 00:40:35;;;;;;;6.10;5.22;;;;;;;;;;5007348;28;20053;-69
2023/04/25 00:43:00;;;;;;;6.03;4.93;;;;;;;;;;5000142;28;20460;-68
2023/04/25 00:45:29;;;;;;;6.03;4.88;;;;;;;;;;4999385;28;20034;-69
2023/04/25 00:47:56;;;;;;;5.20;4.70;;;;;;;;;;5010264;28;20115;-68
2023/04/25 00:50:22;;;;;;;6.25;4.85;;;;;;;;;;4995050;28;20084;-68
2023/04/25 00:52:48;;;;;;;5.28;4.50;;;;;;;;;;4999683;28;20114;-68
2023/04/25 00:55:13;;;;;;;6.78;4.50;;;;;;;;;;5018981;28;20096;-68
2023/04/25 00:57:40;;;;;;;6.20;4.80;;;;;;;;;;5017707;28;20628;-68
2023/04/25 01:00:07;;;;;;;6.90;4.82;;;;;;;;;;5024005;28;20036;-68
2023/04/25 01:02:35;;;;;;;6.03;4.97;;;;;;;;;;5020703;28;20383;-69
2023/04/25 01:05:01;;;;;;;7.18;4.68;;;;;;;;;;5029313;28;20029;-69
2023/04/25 01:07:27;;;;;;;5.85;5.18;;;;;;;;;;5006708;28;20087;-69
2023/04/25 01:09:52;;;;;;;5.95;4.75;;;;;;;;;;5021218;28;20042;-68
2023/04/25 01:12:18;;;;;;;6.47;4.82;;;;;;;;;;5003746;28;20112;-66
2023/04/25 01:14:44;;;;;;;5.20;4.70;;;;;;;;;;5017196;28;20131;-68
2023/04/25 01:17:10;;;;;;;4.70;4.30;;;;;;;;;;5015673;28;20299;-68
2023/04/25 01:19:36;;;;;;;5.60;4.43;;;;;;;;;;5018563;28;20034;-68
2023/04/25 01:22:01;;;;;;;6.00;4.63;;;;;;;;;;5024466;28;20029;-68
2023/04/25 01:24:31;;;;;;;5.30;4.65;;;;;;;;;;4995810;28;20455;-68
2023/04/25 01:26:58;;;;;;;5.50;4.72;;;;;;;;;;5002256;28;20516;-68
2023/04/25 01:29:24;;;;;;;6.88;5.35;;;;;;;;;;5010748;28;20564;-69
2023/04/25 01:31:52;;;;;;;5.53;5.03;;;;;;;;;;5019157;28;20286;-68
2023/04/25 01:34:18;;;;;;;6.45;5.15;;;;;;;;;;5026774;28;20037;-68
2023/04/25 01:36:44;;;;;;;6.40;5.20;;;;;;;;;;5006220;28;20044;-68
2023/04/25 01:39:10;;;;;;;5.85;5.32;;;;;;;;;;5023361;28;20041;-68
2023/04/25 01:41:35;;;;;;;8.10;5.63;;;;;;;;;;5001379;28;20726;-68
2023/04/25 01:44:02;;;;;;;6.53;5.40;;;;;;;;;;4999828;28;20041;-68
2023/04/25 01:46:28;;;;;;;5.82;5.20;;;;;;;;;;5018367;28;20121;-68
2023/04/25 01:48:54;;;;;;;5.07;4.57;;;;;;;;;;5003024;28;20054;-68
2023/04/25 01:51:20;;;;;;;5.68;5.05;;;;;;;;;;4999248;28;20084;-68
2023/04/25 01:53:46;;;;;;;7.63;5.63;;;;;;;;;;5028624;28;20029;-68
2023/04/25 01:56:12;;;;;;;5.72;5.18;;;;;;;;;;5014183;28;20034;-69
2023/04/25 01:58:39;;;;;;;5.90;4.78;;;;;;;;;;5016262;28;20091;-68
2023/04/25 02:01:20;;;;;;;6.00;5.50;;;;;;;;;;5018006;28;20084;-68
2023/04/25 02:03:57;;;;;;;5.72;5.22;;;;;;;;;;5000597;28;20029;-69
2023/04/25 02:06:30;;;;;;;6.10;5.50;;;;;;;;;;4998814;28;20045;-68
2023/04/25 02:08:57;;;;;;;7.78;5.45;;;;;;;;;;5008030;28;20433;-68
2023/04/25 02:11:22;;;;;;;5.45;4.95;;;;;;;;;;5023937;28;20132;-68
2023/04/25 02:14:08;;;;;;;8.32;5.10;;;;;;;;;;5010356;28;20056;-68
2023/04/25 02:16:46;;;;;;;5.45;4.95;;;;;;;;;;4997180;28;20033;-68
2023/04/25 02:19:11;;;;;;;5.05;4.30;;;;;;;;;;5005663;28;20480;-68
2023/04/25 02:21:37;;;;;;;8.60;4.95;;;;;;;;;;5018541;28;20037;-68
2023/04/25 02:24:03;;;;;;;5.90;5.10;;;;;;;;;;5028280;28;20075;-69
2023/04/25 02:26:29;;;;;;;8.05;5.30;;;;;;;;;;5001358;28;20120;-67
2023/04/25 02:28:56;;;;;;;5.55;4.60;;;;;;;;;;5012747;28;20480;-67
2023/04/25 02:31:22;;;;;;;5.20;4.80;;;;;;;;;;5010766;28;20041;-67
2023/04/25 02:33:51;;;;;;;5.90;4.40;;;;;;;;;;4995746;28;20378;-66
2023/04/25 02:36:17;;;;;;;5.85;5.28;;;;;;;;;;5019821;28;20397;-67
2023/04/25 02:38:42;;;;;;;4.70;4.35;;;;;;;;;;5004872;28;20481;-67
2023/04/25 02:41:08;;;;;;;5.05;4.65;;;;;;;;;;5009739;28;20048;-67
2023/04/25 02:43:33;;;;;;;5.53;5.05;;;;;;;;;;5000649;28;20099;-68
2023/04/25 02:45:59;;;;;;;4.97;4.53;;;;;;;;;;5003654;28;20673;-68
2023/04/25 02:48:24;;;;;;;4.88;4.47;;;;;;;;;;5007141;28;20036;-68
2023/04/25 02:50:50;;;;;;;5.80;5.10;;;;;;;;;;4993131;28;20540;-67
2023/04/25 02:53:15;;;;;;;5.50;4.80;;;;;;;;;;5006392;28;20033;-67
2023/04/25 02:55:46;;;;;;;5.43;4.50;;;;;;;;;;5000253;28;20084;-67
2023/04/25 02:58:12;;;;;;;5.20;4.80;;;;;;;;;;4999316;28;20123;-68
2023/04/25 03:00:46;;;;;;;4.93;4.43;;;;;;;;;;5007686;28;20049;-68
2023/04/25 03:03:12;;;;;;;5.28;4.57;;;;;;;;;;4998101;28;20042;-67
2023/04/25 03:05:38;;;;;;;6.07;4.85;;;;;;;;;;5007156;28;20041;-67
2023/04/25 03:08:03;;;;;;;5.70;4.68;;;;;;;;;;5017599;28;20038;-67
2023/04/25 03:10:31;;;;;;;6.20;4.65;;;;;;;;;;4979848;28;20048;-67
2023/04/25 03:13:01;;;;;;;5.32;4.93;;;;;;;;;;4999392;28;20041;-67
2023/04/25 03:15:27;;;;;;;6.72;4.72;;;;;;;;;;4997420;28;20504;-67
2023/04/25 03:17:52;;;;;;;6.78;5.10;;;;;;;;;;4996867;28;20034;-67
2023/04/25 03:20:18;;;;;;;5.45;4.70;;;;;;;;;;5021833;28;20037;-69
2023/04/25 03:22:44;;;;;;;4.78;4.38;;;;;;;;;;5008480;28;20041;-66
2023/04/25 03:25:09;;;;;;;5.47;4.90;;;;;;;;;;5014871;28;20200;-67
2023/04/25 03:27:35;;;;;;;5.05;4.60;;;;;;;;;;5016397;28;20034;-67
2023/04/25 03:30:02;;;;;;;5.45;5.00;;;;;;;;;;5007578;28;20037;-68
2023/04/25 03:32:29;;;;;;;5.95;4.90;;;;;;;;;;5015026;28;20401;-67
2023/04/25 03:34:54;;;;;;;7.78;5.65;;;;;;;;;;5001852;28;20033;-67
2023/04/25 03:37:20;;;;;;;5.97;5.28;;;;;;;;;;5011793;28;20033;-67
2023/04/25 03:39:46;;;;;;;7.25;5.13;;;;;;;;;;5016185;28;20042;-67
2023/04/25 03:42:12;;;;;;;5.55;4.85;;;;;;;;;;4997104;28;20510;-67
2023/04/25 03:44:37;;;;;;;5.53;4.88;;;;;;;;;;5000729;28;20098;-67
2023/04/25 03:47:03;;;;;;;5.32;4.82;;;;;;;;;;4994837;28;20057;-67
2023/04/25 03:49:30;;;;;;;6.45;4.90;;;;;;;;;;4993293;28;20481;-67
2023/04/25 03:52:02;;;;;;;6.32;4.90;;;;;;;;;;5003270;28;20036;-67
2023/04/25 03:54:32;;;;;;;5.20;4.80;;;;;;;;;;5007383;28;20368;-67
2023/04/25 03:57:07;;;;;;;5.68;5.13;;;;;;;;;;4998808;28;20037;-67
2023/04/25 03:59:36;;;;;;;5.28;4.82;;;;;;;;;;4998336;28;20042;-67
2023/04/25 04:02:02;;;;;;;6.60;4.85;;;;;;;;;;5000886;28;20057;-70
2023/04/25 04:04:28;;;;;;;5.80;5.07;;;;;;;;;;5000201;28;20033;-70
2023/04/25 04:06:54;;;;;;;8.57;5.57;;;;;;;;;;4995943;28;20061;-70
2023/04/25 04:09:29;;;;;;;7.00;5.68;;;;;;;;;;5007869;28;20037;-70
2023/04/25 04:11:56;;;;;;;6.30;5.53;;;;;;;;;;5006630;28;20067;-70
2023/04/25 04:14:22;;;;;;;6.15;5.45;;;;;;;;;;5000306;28;20029;-71
2023/04/25 04:16:51;;;;;;;5.70;5.20;;;;;;;;;;5000644;28;20037;-71
2023/04/25 04:19:16;;;;;;;5.65;5.13;;;;;;;;;;4996261;28;20040;-70
2023/04/25 04:21:48;;;;;;;5.05;4.40;;;;;;;;;;5017176;28;20042;-70
2023/04/25 04:24:16;;;;;;;6.68;5.03;;;;;;;;;;4991774;28;20064;-71
2023/04/25 04:26:50;;;;;;;5.75;5.20;;;;;;;;;;5005736;28;20734;-68
2023/04/25 04:29:41;;;;;;;6.85;5.25;;;;;;;;;;4997020;28;20141;-71
2023/04/25 04:32:14;;;;;;;5.63;5.13;;;;;;;;;;5005745;28;20532;-71
2023/04/25 04:34:41;;;;;;;6.88;5.30;;;;;;;;;;5010335;28;20045;-71
2023/04/25 04:37:07;;;;;;;5.45;5.03;;;;;;;;;;5007311;28;20057;-71
2023/04/25 04:39:33;;;;;;;5.93;5.43;;;;;;;;;;5005827;28;20037;-71
2023/04/25 04:42:24;;;;;;;7.35;5.65;;;;;;;;;;5004375;28;20129;-71
2023/04/25 04:45:02;;;;;;;7.50;5.60;;;;;;;;;;5015792;28;20037;-71
2023/04/25 04:48:06;;;;;;;11.55;6.03;;;;;;;;;;4942854;28;20042;-71
2023/04/25 04:50:58;;;;;;;6.00;5.43;;;;;;;;;;5006072;28;20053;-71
2023/04/25 04:53:43;;;;;;;5.90;5.32;;;;;;;;;;4997398;28;20057;-71
2023/04/25 04:56:30;;;;;;;6.95;5.47;;;;;;;;;;5017333;28;20116;-71
2023/04/25 04:59:22;;;;;;;6.82;5.28;;;;;;;;;;4986398;28;20400;-71
2023/04/25 05:01:59;;;;;;;6.30;5.70;;;;;;;;;;5016497;28;20083;-70
2023/04/25 05:05:00;;;;;;;5.90;5.30;;;;;;;;;;4945117;28;20708;-69
2023/04/25 05:07:44;;;;;;;6.97;6.07;;;;;;;;;;5012438;28;20045;-69
2023/04/25 05:10:30;;;;;;;11.75;5.72;;;;;;;;;;5025019;28;20057;-70
2023/04/25 05:12:56;;;;;;;9.90;5.80;;;;;;;;;;5019278;28;20112;-69
2023/04/25 05:15:40;;;;;;;8.88;5.30;;;;;;;;;;5024041;28;20713;-69
2023/04/25 05:18:05;;;;;;;7.65;5.85;;;;;;;;;;5016790;28;20060;-69
2023/04/25 05:20:54;;;;;;;5.82;5.32;;;;;;;;;;5000637;28;20194;-69
2023/04/25 05:23:36;;;;;;;11.45;5.80;;;;;;;;;;4999267;28;20044;-70
2023/04/25 05:26:13;;;;;;;7.78;5.80;;;;;;;;;;5020273;28;20593;-69
2023/04/25 05:29:02;;;;;;;7.50;5.80;;;;;;;;;;4980077;28;20049;-69
2023/04/25 05:31:53;;;;;;;7.93;5.82;;;;;;;;;;5000981;28;20165;-70
2023/04/25 05:34:18;;;;;;;6.63;5.53;;;;;;;;;;5003634;28;20037;-70
2023/04/25 05:36:53;;;;;;;10.70;6.10;;;;;;;;;;5001745;28;20598;-70
2023/04/25 05:39:19;;;;;;;5.95;5.38;;;;;;;;;;4999581;28;20113;-70
2023/04/25 05:42:04;;;;;;;6.07;5.47;;;;;;;;;;5022528;28;20239;-70
2023/04/25 05:44:48;;;;;;;6.13;5.53;;;;;;;;;;5019489;28;20033;-69
2023/04/25 05:47:31;;;;;;;7.68;5.80;;;;;;;;;;5004932;28;20025;-70
2023/04/25 05:50:05;;;;;;;7.65;5.50;;;;;;;;;;4998485;28;20480;-70
2023/04/25 05:52:42;;;;;;;7.18;5.38;;;;;;;;;;5022814;28;20332;-70
2023/04/25 05:55:23;;;;;;;6.93;5.85;;;;;;;;;;4999365;28;20047;-70
2023/04/25 05:57:49;;;;;;;7.88;5.88;;;;;;;;;;5020076;28;20026;-70
2023/04/25 06:00:16;;;;;;;7.85;6.00;;;;;;;;;;5004725;28;20044;-70
2023/04/25 06:02:44;;;;;;;6.13;5.05;;;;;;;;;;5018654;28;20126;-69
2023/04/25 06:05:12;;;;;;;7.28;5.55;;;;;;;;;;4998636;28;20030;-69
2023/04/25 06:07:37;;;;;;;6.30;5.70;;;;;;;;;;5016495;28;20070;-69
2023/04/25 06:10:06;;;;;;;6.57;5.57;;;;;;;;;;5007297;28;20041;-70
2023/04/25 06:12:33;;;;;;;7.95;5.55;;;;;;;;;;5016382;28;20025;-69
2023/04/25 06:14:59;;;;;;;6.70;5.60;;;;;;;;;;5001610;28;20091;-69
2023/04/25 06:17:25;;;;;;;6.35;5.53;;;;;;;;;;5008487;28;20116;-70
2023/04/25 06:19:51;;;;;;;5.57;5.07;;;;;;;;;;5009089;28;20163;-70
2023/04/25 06:22:17;;;;;;;6.90;5.75;;;;;;;;;;5000098;28;20095;-69
2023/04/25 06:24:43;;;;;;;5.80;5.30;;;;;;;;;;4998190;28;20042;-69
2023/04/25 06:27:09;;;;;;;5.85;5.28;;;;;;;;;;5005073;28;20061;-70
2023/04/25 06:29:34;;;;;;;6.03;5.43;;;;;;;;;;4991363;28;20135;-70
2023/04/25 06:32:00;;;;;;;6.15;5.05;;;;;;;;;;5012323;28;20416;-70
2023/04/25 06:34:26;;;;;;;10.25;5.63;;;;;;;;;;5016126;28;20083;-70
2023/04/25 06:36:51;;;;;;;6.75;5.57;;;;;;;;;;5004650;28;20037;-70
2023/04/25 06:39:17;;;;;;;5.68;5.10;;;;;;;;;;5029680;28;20380;-70
2023/04/25 06:41:43;;;;;;;7.20;5.10;;;;;;;;;;5008083;28;20056;-70
2023/04/25 06:44:29;;;;;;;10.63;5.60;;;;;;;;;;5026652;28;20483;-69
2023/04/25 06:46:55;;;;;;;5.65;5.15;;;;;;;;;;5018796;28;20087;-70
2023/04/25 06:49:21;;;;;;;8.80;5.40;;;;;;;;;;5001790;28;20287;-69
2023/04/25 06:51:47;;;;;;;5.78;5.28;;;;;;;;;;5007572;28;20037;-70
2023/04/25 06:54:13;;;;;;;6.00;5.50;;;;;;;;;;5005505;28;20450;-70
2023/04/25 06:56:48;;;;;;;5.78;5.18;;;;;;;;;;5007882;28;20033;-69
2023/04/25 06:59:14;;;;;;;7.85;5.60;;;;;;;;;;5005060;28;20116;-70
2023/04/25 07:01:41;;;;;;;5.88;5.28;;;;;;;;;;5007335;28;20048;-70
2023/04/25 07:04:14;;;;;;;6.07;5.47;;;;;;;;;;5010266;28;20704;-70
2023/04/25 07:06:47;;;;;;;5.18;4.78;;;;;;;;;;5007802;28;20213;-70
2023/04/25 07:09:14;;;;;;;5.95;5.35;;;;;;;;;;5012551;28;20435;-70
2023/04/25 07:11:44;;;;;;;5.70;5.18;;;;;;;;;;5006884;28;20508;-70
2023/04/25 07:14:10;;;;;;;7.30;5.15;;;;;;;;;;4999628;28;20091;-70
2023/04/25 07:16:35;;;;;;;5.07;4.68;;;;;;;;;;5005242;28;20047;-69
2023/04/25 07:19:01;;;;;;;5.85;5.10;;;;;;;;;;5001510;28;20094;-70
2023/04/25 07:21:27;;;;;;;6.82;5.38;;;;;;;;;;5002086;28;20083;-70
2023/04/25 07:23:53;;;;;;;7.45;5.00;;;;;;;;;;5011398;28;20025;-70
2023/04/25 07:26:24;;;;;;;5.30;4.88;;;;;;;;;;4998733;28;20044;-69
2023/04/25 07:29:13;;;;;;;5.28;4.78;;;;;;;;;;5017748;28;20555;-70
2023/04/25 07:31:39;;;;;;;5.53;5.03;;;;;;;;;;5005924;28;20124;-70
2023/04/25 07:34:05;;;;;;;6.30;5.15;;;;;;;;;;5009354;28;20039;-70
2023/04/25 07:36:31;;;;;;;5.78;5.28;;;;;;;;;;5004425;28;20033;-70
2023/04/25 07:38:57;;;;;;;5.47;4.97;;;;;;;;;;5020939;28;20405;-69
2023/04/25 07:41:22;;;;;;;6.35;5.85;;;;;;;;;;5002825;28;20090;-68
2023/04/25 07:43:48;;;;;;;6.25;5.75;;;;;;;;;;5022722;28;20052;-68
2023/04/25 07:46:14;;;;;;;7.55;6.18;;;;;;;;;;5005105;28;20032;-68
2023/04/25 07:48:40;;;;;;;6.78;6.07;;;;;;;;;;5008053;28;20041;-68
2023/04/25 07:51:07;;;;;;;9.60;7.15;;;;;;;;;;5003453;28;20120;-68
2023/04/25 07:53:35;;;;;;;6.73;6.13;;;;;;;;;;5003631;28;20503;-68
2023/04/25 07:56:05;;;;;;;7.43;5.97;;;;;;;;;;5000061;28;20034;-68
2023/04/25 07:58:36;;;;;;;6.50;6.00;;;;;;;;;;5009992;28;20048;-68
2023/04/25 08:01:04;;;;;;;8.10;7.30;;;;;;;;;;4998137;28;20041;-68
2023/04/25 08:03:45;;;;;;;7.70;6.90;;;;;;;;;;5003016;28;20111;-68
2023/04/25 08:06:18;;;;;;;7.68;6.97;;;;;;;;;;5003551;28;20038;-68
2023/04/25 08:09:00;;;;;;;9.65;6.88;;;;;;;;;;5009080;28;20033;-68
2023/04/25 08:11:33;;;;;;;8.18;7.15;;;;;;;;;;5003205;28;20068;-69
2023/04/25 08:13:59;;;;;;;7.78;7.07;;;;;;;;;;4991185;28;20064;-69
2023/04/25 08:16:25;;;;;;;8.30;7.28;;;;;;;;;;5013729;28;20115;-69
2023/04/25 08:18:51;;;;;;;8.63;7.22;;;;;;;;;;5001398;28;20434;-68
2023/04/25 08:21:17;;;;;;;8.73;7.65;;;;;;;;;;5020386;28;20041;-67
2023/04/25 08:23:43;;;;;;;8.18;7.38;;;;;;;;;;5005650;28;20104;-69
2023/04/25 08:26:19;;;;;;;10.15;7.93;;;;;;;;;;5001224;28;20041;-68
2023/04/25 08:28:46;;;;;;;9.07;8.00;;;;;;;;;;5021171;28;20037;-68
2023/04/25 08:31:12;;;;;;;8.35;7.55;;;;;;;;;;5020601;28;20249;-68
2023/04/25 08:33:47;;;;;;;9.35;8.15;;;;;;;;;;5005950;28;20037;-68
2023/04/25 08:36:21;;;;;;;9.60;8.60;;;;;;;;;;5007638;28;20045;-69
2023/04/25 08:38:46;;;;;;;10.50;8.43;;;;;;;;;;5016683;28;20044;-68
2023/04/25 08:41:13;;;;;;;13.05;9.90;;;;;;;;;;5007204;28;20440;-69
2023/04/25 08:43:43;;;;;;;10.27;9.05;;;;;;;;;;5013189;28;20066;-68
2023/04/25 08:46:10;;;;;;;11.45;8.65;;;;;;;;;;5002227;28;20029;-67
2023/04/25 08:48:45;;;;;;;10.05;8.40;;;;;;;;;;4999195;28;20038;-67
2023/04/25 08:51:19;;;;;;;9.77;8.88;;;;;;;;;;5031077;28;20512;-67
2023/04/25 08:53:46;;;;;;;13.55;10.02;;;;;;;;;;5024206;28;20037;-67
2023/04/25 08:56:13;;;;;;;10.70;8.43;;;;;;;;;;5001453;28;20050;-67
2023/04/25 08:58:39;;;;;;;11.18;9.35;;;;;;;;;;4998542;28;20038;-68
2023/04/25 09:01:05;;;;;;;11.68;8.32;;;;;;;;;;5027999;28;20132;-66
2023/04/25 09:03:38;;;;;;;9.90;8.90;;;;;;;;;;4996637;28;20092;-67
2023/04/25 09:06:04;;;;;;;10.80;8.55;;;;;;;;;;5015411;28;20072;-66
2023/04/25 09:08:30;;;;;;;11.00;9.02;;;;;;;;;;4998156;28;20059;-67
2023/04/25 09:10:56;;;;;;;10.18;9.07;;;;;;;;;;4997467;28;20048;-68
2023/04/25 09:13:26;;;;;;;10.52;9.10;;;;;;;;;;4997162;28;20037;-68
2023/04/25 09:16:11;;;;;;;10.60;9.18;;;;;;;;;;5020126;28;20033;-67
2023/04/25 09:18:53;;;;;;;13.70;9.70;;;;;;;;;;4998778;28;20026;-68
2023/04/25 09:21:22;;;;;;;15.07;9.80;;;;;;;;;;5007820;28;20478;-68
2023/04/25 09:23:49;;;;;;;12.23;9.50;;;;;;;;;;5018581;28;20473;-69
2023/04/25 09:26:19;;;;;;;12.48;9.20;;;;;;;;;;4990863;28;20030;-68
2023/04/25 09:28:47;;;;;;;10.82;9.65;;;;;;;;;;4999689;28;20588;-67
2023/04/25 09:31:26;;;;;;;;;;;;;;;;;;5004730;28;20120;-68
2023/04/25 09:34:03;;;;;;;13.30;9.18;;;;;;;;;;5000676;28;19917;-68
2023/04/25 09:36:36;;;;;;;12.73;9.90;;;;;;;;;;5003389;28;20654;-69
2023/04/25 09:39:28;;;;;;;13.20;9.88;;;;;;;;;;5011179;28;20641;-68
2023/04/25 09:42:03;;;;;;;11.98;10.13;;;;;;;;;;5007390;28;20477;-68
2023/04/25 09:44:28;;;;;;;11.00;9.65;;;;;;;;;;5028371;28;20033;-68
2023/04/25 09:46:54;;;;;;;12.48;9.73;;;;;;;;;;5022179;28;20473;-68
2023/04/25 09:49:25;;;;;;;11.98;9.55;;;;;;;;;;5003701;28;20048;-67
2023/04/25 09:52:00;;;;;;;16.52;10.23;;;;;;;;;;5006676;28;20049;-67
2023/04/25 09:54:35;;;;;;;11.80;9.43;;;;;;;;;;5002435;28;20037;-67
2023/04/25 09:57:15;;;;;;;13.83;9.87;;;;;;;;;;5006411;28;20482;-67
2023/04/25 09:59:54;;;;;;;9.85;8.38;;;;;;;;;;5008660;28;20045;-68
2023/04/25 10:02:25;;;;;;;11.30;9.40;;;;;;;;;;5004504;28;20112;-67
2023/04/25 10:04:55;;;;;;;9.68;8.57;;;;;;;;;;5005035;28;20091;-67
2023/04/25 10:07:28;;;;;;;11.32;9.73;;;;;;;;;;5003479;28;20072;-67
2023/04/25 10:10:00;;;;;;;;;;;;;;;;;;5015412;28;20124;-67
2023/04/25 10:12:26;;;;;;;12.75;10.20;;;;;;;;;;5025098;28;19913;-67
2023/04/25 10:14:52;;;;;;;14.60;12.15;;;;;;;;;;5022095;28;20041;-67
2023/04/25 10:17:19;;;;;;;11.23;9.45;;;;;;;;;;5025377;28;20033;-67
2023/04/25 10:19:47;;;;;;;11.77;10.25;;;;;;;;;;5022367;28;20030;-67
2023/04/25 10:22:34;;;;;;;8.27;7.47;;;;;;;;;;5025891;28;20037;-66
2023/04/25 10:25:03;;;;;;;9.43;8.45;;;;;;;;;;5020155;28;20404;-66
2023/04/25 10:27:29;;;;;;;10.55;7.78;;;;;;;;;;5002396;28;20128;-67
2023/04/25 10:30:09;;;;;;;10.75;8.50;;;;;;;;;;5027699;28;20156;-67
2023/04/25 10:32:35;;;;;;;8.90;8.00;;;;;;;;;;5018821;28;20057;-67
2023/04/25 10:35:25;;;;;;;10.85;8.15;;;;;;;;;;5029168;28;20453;-67
2023/04/25 10:37:58;;;;;;;;;;;;;;;;;;5026563;28;20053;-68
2023/04/25 10:40:24;;;;;;;7.28;6.57;;;;;;;;;;5025210;28;19912;-68
2023/04/25 10:42:52;;;;;;;8.50;7.70;;;;;;;;;;5022897;28;20515;-68
2023/04/25 10:45:17;;;;;;;8.18;6.93;;;;;;;;;;5027523;28;20037;-68
2023/04/25 10:47:46;;;;;;;7.07;5.97;;;;;;;;;;5023912;28;20034;-68
2023/04/25 10:50:15;;;;;;;7.47;6.80;;;;;;;;;;5026292;28;20037;-68
2023/04/25 10:52:40;;;;;;;6.07;5.57;;;;;;;;;;5029306;28;20065;-68
2023/04/25 10:55:06;;;;;;;6.93;6.22;;;;;;;;;;5020617;28;20069;-69
2023/04/25 10:57:43;;;;;;;6.20;5.70;;;;;;;;;;5027702;28;20033;-68
2023/04/25 11:00:17;;;;;;;6.63;6.07;;;;;;;;;;5032183;28;20064;-67
2023/04/25 11:02:46;;;;;;;7.13;6.43;;;;;;;;;;5028700;28;20053;-68
2023/04/25 11:05:49;;;;;;;6.45;5.95;;;;;;;;;;5016387;28;20043;-67
2023/04/25 11:08:22;;;;;;;7.18;6.47;;;;;;;;;;4966979;28;20560;-67
2023/04/25 11:10:48;;;;;;;6.68;6.07;;;;;;;;;;4985673;23;20042;-65
2023/04/25 11:13:14;;;;;;;7.57;6.80;;;;;;;;;;5025882;28;20056;-63
2023/04/25 11:15:39;;;;;;;10.88;6.95;;;;;;;;;;5034592;28;20033;-63
2023/04/25 11:18:06;;;;;;;7.38;6.55;;;;;;;;;;5032398;28;20128;-63
2023/04/25 11:20:31;;;;;;;7.18;6.47;;;;;;;;;;5032803;28;20041;-64
2023/04/25 11:22:59;;;;;;;7.63;5.95;;;;;;;;;;5027616;28;20037;-64
2023/04/25 11:25:25;;;;;;;8.77;7.43;;;;;;;;;;5034817;28;20348;-63
2023/04/25 11:27:52;;;;;;;10.32;8.85;;;;;;;;;;5032024;28;20033;-64
2023/04/25 11:30:18;;;;;;;11.85;9.65;;;;;;;;;;5025647;28;20488;-63
2023/04/25 11:32:44;;;;;;;11.23;9.13;;;;;;;;;;5027477;28;20488;-63
2023/04/25 11:35:10;;;;;;;9.55;7.53;;;;;;;;;;5034681;28;20098;-63
2023/04/25 11:37:36;;;;;;;9.45;8.43;;;;;;;;;;5025989;28;20037;-64
2023/04/25 11:40:06;;;;;;;8.55;6.78;;;;;;;;;;5026766;28;20044;-64
2023/04/25 11:42:33;;;;;;;6.32;5.72;;;;;;;;;;5027163;28;20112;-64
2023/04/25 11:44:59;;;;;;;7.15;6.55;;;;;;;;;;5027277;28;20029;-64
2023/04/25 11:47:32;;;;;;;5.30;4.93;;;;;;;;;;5026847;28;20039;-64
2023/04/25 11:49:59;;;;;;;7.30;6.70;;;;;;;;;;5027578;28;20072;-64
2023/04/25 11:52:55;;;;;;;5.97;5.55;;;;;;;;;;5025478;28;20399;-64
2023/04/25 11:55:20;;;;;;;6.40;5.85;;;;;;;;;;5019973;28;20075;-64
2023/04/25 11:57:50;;;;;;;5.70;5.30;;;;;;;;;;5026833;28;20041;-64
2023/04/25 12:00:18;;;;;;;6.28;5.78;;;;;;;;;;5026352;28;20166;-64
2023/04/25 12:02:45;;;;;;;7.60;6.90;;;;;;;;;;5026864;28;20099;-64
2023/04/25 12:05:12;;;;;;;6.28;5.78;;;;;;;;;;5025349;28;20045;-64
2023/04/25 12:07:38;;;;;;;6.20;5.70;;;;;;;;;;5026594;28;20029;-65
2023/04/25 12:10:06;;;;;;;6.47;5.97;;;;;;;;;;5026765;28;20046;-65
2023/04/25 12:12:33;;;;;;;6.95;6.38;;;;;;;;;;5026290;28;20071;-65
2023/04/25 12:15:10;;;;;;;7.47;6.78;;;;;;;;;;5035039;28;20082;-65
2023/04/25 12:17:40;;;;;;;6.40;5.90;;;;;;;;;;5036395;28;20451;-64
2023/04/25 12:20:08;;;;;;;9.15;7.00;;;;;;;;;;5021850;28;20381;-65
2023/04/25 12:22:34;;;;;;;7.93;7.22;;;;;;;;;;5027486;28;20041;-65
2023/04/25 12:25:00;;;;;;;7.15;6.45;;;;;;;;;;5028253;28;20104;-65
2023/04/25 12:27:26;;;;;;;6.60;6.00;;;;;;;;;;5028113;28;20163;-65
2023/04/25 12:29:56;;;;;;;12.73;7.75;;;;;;;;;;5026154;28;20045;-64
2023/04/25 12:32:22;;;;;;;7.57;6.88;;;;;;;;;;5027756;28;20452;-64
2023/04/25 12:34:47;;;;;;;6.63;6.03;;;;;;;;;;5027962;28;20683;-64
2023/04/25 12:37:13;;;;;;;7.05;6.50;;;;;;;;;;5027902;28;20124;-65
2023/04/25 12:39:39;;;;;;;7.65;6.82;;;;;;;;;;5026364;28;20199;-64
2023/04/25 12:42:05;;;;;;;7.60;6.90;;;;;;;;;;5028017;28;20039;-64
2023/04/25 12:44:30;;;;;;;8.18;7.47;;;;;;;;;;5027547;28;20075;-64
2023/04/25 12:46:56;;;;;;;8.63;6.72;;;;;;;;;;5026986;28;20122;-64
2023/04/25 12:49:22;;;;;;;8.50;7.70;;;;;;;;;;5026611;28;20385;-64
2023/04/25 12:51:47;;;;;;;8.25;7.55;;;;;;;;;;5032858;28;20482;-64
2023/04/25 12:54:14;;;;;;;8.65;7.80;;;;;;;;;;5028434;28;20025;-64
2023/04/25 12:56:40;;;;;;;9.25;8.35;;;;;;;;;;5027606;28;20231;-64
2023/04/25 12:59:06;;;;;;;8.88;7.97;;;;;;;;;;5025784;28;20033;-64
2023/04/25 13:01:32;;;;;;;9.32;8.45;;;;;;;;;;5027518;28;20040;-63
2023/04/25 13:03:58;;;;;;;8.80;7.97;;;;;;;;;;5035162;28;20041;-63
2023/04/25 13:06:24;;;;;;;8.88;8.07;;;;;;;;;;5026651;28;20040;-63
2023/04/25 13:08:49;;;;;;;9.93;8.98;;;;;;;;;;5026919;28;20037;-64
2023/04/25 13:11:15;;;;;;;9.55;8.65;;;;;;;;;;5027151;28;20495;-64
2023/04/25 13:13:42;;;;;;;9.50;8.60;;;;;;;;;;5024019;28;20045;-63
2023/04/25 13:16:08;;;;;;;8.60;7.80;;;;;;;;;;5032307;28;20112;-63
2023/04/25 13:18:33;;;;;;;8.88;8.07;;;;;;;;;;5024763;28;20045;-65
2023/04/25 13:20:59;;;;;;;9.70;8.80;;;;;;;;;;5023813;28;20444;-65
2023/04/25 13:23:27;;;;;;;10.43;9.38;;;;;;;;;;5024489;28;20048;-65
2023/04/25 13:25:53;;;;;;;8.82;8.02;;;;;;;;;;5025674;28;20033;-65
2023/04/25 13:28:18;;;;;;;9.18;8.18;;;;;;;;;;5024632;28;20026;-65
2023/04/25 13:30:46;;;;;;;9.93;9.00;;;;;;;;;;5023849;28;20052;-65
2023/04/25 13:33:12;;;;;;;8.38;7.57;;;;;;;;;;5025190;28;20033;-65
2023/04/25 13:35:38;;;;;;;9.20;8.30;;;;;;;;;;5024748;28;20045;-66
2023/04/25 13:38:04;;;;;;;9.32;7.72;;;;;;;;;;5031298;28;20406;-65
2023/04/25 13:40:30;;;;;;;9.18;8.25;;;;;;;;;;5024789;28;20063;-65
2023/04/25 13:42:56;;;;;;;9.60;8.60;;;;;;;;;;5024789;28;20033;-65
2023/04/25 13:45:21;;;;;;;9.65;8.45;;;;;;;;;;5022421;28;20044;-65
2023/04/25 13:47:47;;;;;;;8.50;7.70;;;;;;;;;;5024702;28;20113;-65
2023/04/25 13:50:13;;;;;;;8.77;7.88;;;;;;;;;;5024774;28;20098;-65
2023/04/25 13:52:39;;;;;;;9.40;8.32;;;;;;;;;;5024832;28;20128;-65
2023/04/25 13:55:07;;;;;;;9.02;8.23;;;;;;;;;;5023523;28;20314;-65
2023/04/25 13:57:33;;;;;;;9.25;8.25;;;;;;;;;;5024821;28;20361;-64
2023/04/25 13:59:59;;;;;;;9.32;8.50;;;;;;;;;;5024569;28;20091;-65
2023/04/25 14:02:25;;;;;;;9.68;7.80;;;;;;;;;;5024806;28;20081;-65
2023/04/25 14:04:51;;;;;;;9.30;8.20;;;;;;;;;;5021952;28;20037;-64
2023/04/25 14:07:19;;;;;;;8.70;7.80;;;;;;;;;;5024620;28;20044;-64
2023/04/25 14:09:44;;;;;;;9.18;8.30;;;;;;;;;;5024523;28;20332;-64
2023/04/25 14:12:10;;;;;;;9.80;8.60;;;;;;;;;;5021985;28;20621;-65
2023/04/25 14:14:36;;;;;;;10.43;8.23;;;;;;;;;;5024728;28;20076;-64
2023/04/25 14:17:02;;;;;;;9.02;8.18;;;;;;;;;;5025231;28;20490;-64
2023/04/25 14:19:28;;;;;;;10.55;9.55;;;;;;;;;;5024849;28;20025;-64
2023/04/25 14:21:54;;;;;;;11.77;8.80;;;;;;;;;;5022148;28;20084;-64
2023/04/25 14:24:20;;;;;;;9.85;8.85;;;;;;;;;;5025116;28;20033;-64
2023/04/25 14:26:45;;;;;;;11.77;9.52;;;;;;;;;;5026152;28;20050;-64
2023/04/25 14:29:11;;;;;;;9.30;8.40;;;;;;;;;;5023663;28;20546;-64
2023/04/25 14:31:39;;;;;;;10.63;9.52;;;;;;;;;;5026294;28;20404;-64
2023/04/25 14:34:05;;;;;;;11.40;9.38;;;;;;;;;;5033840;28;20111;-63
2023/04/25 14:36:31;;;;;;;11.43;10.25;;;;;;;;;;5024181;28;20033;-64
2023/04/25 14:38:58;;;;;;;11.40;10.23;;;;;;;;;;5023308;28;20037;-63
2023/04/25 14:41:24;;;;;;;12.90;9.32;;;;;;;;;;5024525;28;20131;-63
2023/04/25 14:43:50;;;;;;;11.07;9.18;;;;;;;;;;5024441;28;20477;-63
2023/04/25 14:46:16;;;;;;;10.82;9.43;;;;;;;;;;5023282;28;20124;-63
2023/04/25 14:48:42;;;;;;;10.70;9.52;;;;;;;;;;5022911;28;20554;-63
2023/04/25 14:51:08;;;;;;;11.63;9.77;;;;;;;;;;5025239;28;20084;-64
2023/04/25 14:53:33;;;;;;;12.65;10.32;;;;;;;;;;5024329;28;20083;-63